This is the latest recevied weather packets stored in our database for station/object OE5ERN-10. If no packets are shown the sender has not sent any weather packets the latest 10 day(s).
| Time | Temp. | Humidity | Pressure | Rain* | Wind** | Luminosity | Snow |
|---|---|---|---|---|---|---|---|
| 1777722039 | 25.56° C | 23% | 1026 hPa | 0 mm | - | - | - |
| 1777721139 | 26.11° C | 23% | 1026.2 hPa | 0 mm | - | - | - |
| 1777720239 | 25.56° C | 26% | 1026.3 hPa | 0 mm | - | - | - |
| 1777719339 | 25.56° C | 25% | 1026.4 hPa | 0 mm | - | - | - |
| 1777718439 | 25° C | 27% | 1026.6 hPa | 0 mm | - | - | - |
| 1777717539 | 25° C | 25% | 1026.9 hPa | 0 mm | - | - | - |
| 1777716639 | 27.22° C | 26% | 1027.1 hPa | 0 mm | - | - | - |
| 1777715739 | 27.78° C | 25% | 1027.4 hPa | 0 mm | - | - | - |
| 1777714839 | 30.56° C | 22% | 1027.4 hPa | 0 mm | - | - | - |
| 1777713939 | 31.11° C | 21% | 1027.6 hPa | 0 mm | - | - | - |
| 1777713039 | 30.56° C | 22% | 1027.8 hPa | 0 mm | - | - | - |
| 1777712139 | 33.33° C | 20% | 1027.8 hPa | 0 mm | - | - | - |
| 1777711239 | 35° C | 23% | 1027.9 hPa | 0 mm | - | - | - |
| 1777710339 | 35° C | 21% | 1028.2 hPa | 0 mm | - | - | - |
| 1777709439 | 34.44° C | 23% | 1028.4 hPa | 0 mm | - | - | - |
| 1777708539 | 34.44° C | 23% | 1028.6 hPa | 0 mm | - | - | - |
| 1777707639 | 35.56° C | 21% | 1028.8 hPa | 0 mm | - | - | - |
| 1777706739 | 35.56° C | 23% | 1028.9 hPa | 0 mm | - | - | - |
| 1777705839 | 35° C | 23% | 1028.9 hPa | 0 mm | - | - | - |
| 1777704939 | 34.44° C | 23% | 1029.1 hPa | 0 mm | - | - | - |
| 1777704039 | 33.89° C | 25% | 1029.2 hPa | 0 mm | - | - | - |
| 1777703139 | 32.22° C | 28% | 1029.4 hPa | 0 mm | - | - | - |
| 1777702239 | 28.89° C | 33% | 1029.5 hPa | 0 mm | - | - | - |
| 1777701339 | 25° C | 38% | 1029.4 hPa | 0 mm | - | - | - |
| 1777700439 | 20° C | 51% | 1029.5 hPa | 0 mm | - | - | - |
* Rain latest hour (hover to see other rain measurements)
** Current wind speed in m/s (hover to see current wind gust speed)